Time;durP1;ratioP1;P1;durP2;ratioP2;P2;SDS_P1;SDS_P2;PMS_P1;PMS_P2;Temp;Humidity;BMP_temperature;BMP_pressure;BME280_temperature;BME280_humidity;BME280_pressure;Samples;Min_cycle;Max_cycle;Signal;HPM_P1;HPM_P2
2023/10/26 00:01:54;;;;;;;0.20;0.08;;;;;;;;;;5013530;28;20029;-82
2023/10/26 00:04:20;;;;;;;0.38;0.20;;;;;;;;;;5012046;28;20154;-81
2023/10/26 00:06:46;;;;;;;0.20;0.00;;;;;;;;;;5008381;28;20486;-81
2023/10/26 00:09:12;;;;;;;0.20;0.10;;;;;;;;;;4999964;28;20076;-79
2023/10/26 00:11:38;;;;;;;0.20;0.10;;;;;;;;;;5007507;28;20469;-80
2023/10/26 00:14:04;;;;;;;0.20;0.17;;;;;;;;;;4991554;28;20120;-81
2023/10/26 00:16:30;;;;;;;0.20;0.10;;;;;;;;;;4987351;28;20413;-81
2023/10/26 00:18:56;;;;;;;0.38;0.30;;;;;;;;;;5006520;28;20029;-81
2023/10/26 00:21:22;;;;;;;0.20;0.10;;;;;;;;;;5002566;28;20056;-81
2023/10/26 00:23:48;;;;;;;0.20;0.00;;;;;;;;;;4997970;28;20040;-80
2023/10/26 00:26:14;;;;;;;0.20;0.10;;;;;;;;;;5002187;28;20059;-80
2023/10/26 00:28:40;;;;;;;0.20;0.20;;;;;;;;;;5007006;28;20116;-83
2023/10/26 00:31:06;;;;;;;0.30;0.30;;;;;;;;;;5009584;28;20083;-82
2023/10/26 00:33:32;;;;;;;0.20;0.05;;;;;;;;;;5006485;28;20622;-82
2023/10/26 00:35:58;;;;;;;0.20;0.17;;;;;;;;;;5005108;28;20037;-83
2023/10/26 00:38:24;;;;;;;0.20;0.00;;;;;;;;;;5008436;28;20439;-83
2023/10/26 00:40:50;;;;;;;0.20;0.00;;;;;;;;;;4990879;28;20037;-83
2023/10/26 00:43:30;;;;;;;0.20;0.10;;;;;;;;;;5002068;28;20036;-84
2023/10/26 00:45:56;;;;;;;0.20;0.17;;;;;;;;;;5004691;28;20061;-82
2023/10/26 00:48:23;;;;;;;0.20;0.10;;;;;;;;;;5010991;28;20124;-82
2023/10/26 00:50:49;;;;;;;0.20;0.00;;;;;;;;;;4991228;28;20049;-81
2023/10/26 00:53:17;;;;;;;0.20;0.10;;;;;;;;;;5001948;28;20057;-83
2023/10/26 00:55:44;;;;;;;0.30;0.15;;;;;;;;;;4990280;28;20045;-83
2023/10/26 00:58:10;;;;;;;0.20;0.13;;;;;;;;;;5003650;28;20034;-83
2023/10/26 01:00:37;;;;;;;0.20;0.10;;;;;;;;;;4997825;28;20045;-83
2023/10/26 01:03:04;;;;;;;0.20;0.10;;;;;;;;;;5003005;28;20037;-85
2023/10/26 01:05:30;;;;;;;0.20;0.10;;;;;;;;;;5007929;28;20371;-82
2023/10/26 01:07:56;;;;;;;0.20;0.10;;;;;;;;;;5009039;28;20585;-82
2023/10/26 01:10:22;;;;;;;0.20;0.00;;;;;;;;;;5011740;28;20083;-82
2023/10/26 01:12:48;;;;;;;0.20;0.10;;;;;;;;;;4989050;28;20502;-82
2023/10/26 01:15:14;;;;;;;0.20;0.10;;;;;;;;;;4995426;28;20048;-81
2023/10/26 01:17:40;;;;;;;0.20;0.05;;;;;;;;;;4991880;28;20077;-82
2023/10/26 01:20:06;;;;;;;0.20;0.10;;;;;;;;;;4985463;28;20069;-82
2023/10/26 01:22:35;;;;;;;0.20;0.10;;;;;;;;;;5000395;28;20041;-83
2023/10/26 01:25:02;;;;;;;0.20;0.10;;;;;;;;;;5000792;28;20069;-81
2023/10/26 01:27:28;;;;;;;0.20;0.10;;;;;;;;;;5000269;28;20798;-82
2023/10/26 01:29:55;;;;;;;1.38;0.45;;;;;;;;;;4997220;28;20092;-83
2023/10/26 01:32:21;;;;;;;0.20;0.10;;;;;;;;;;5012066;28;20461;-82
2023/10/26 01:34:47;;;;;;;0.55;0.15;;;;;;;;;;4998600;28;20044;-83
2023/10/26 01:37:13;;;;;;;0.50;0.50;;;;;;;;;;4998660;28;20037;-83
2023/10/26 01:39:39;;;;;;;0.20;0.10;;;;;;;;;;5001258;28;20501;-82
2023/10/26 01:42:09;;;;;;;0.30;0.25;;;;;;;;;;4992294;28;20033;-81
2023/10/26 01:44:35;;;;;;;0.20;0.10;;;;;;;;;;5018801;28;20038;-81
2023/10/26 01:47:01;;;;;;;0.20;0.10;;;;;;;;;;5010676;28;20550;-81
2023/10/26 01:49:27;;;;;;;0.20;0.10;;;;;;;;;;5011519;28;20100;-81
2023/10/26 01:51:53;;;;;;;0.20;0.15;;;;;;;;;;4998500;28;20452;-81
2023/10/26 01:54:19;;;;;;;0.20;0.10;;;;;;;;;;5008372;28;20040;-80
2023/10/26 01:56:45;;;;;;;0.43;0.38;;;;;;;;;;5004487;28;20047;-81
2023/10/26 01:59:11;;;;;;;0.20;0.10;;;;;;;;;;4986732;28;20033;-82
2023/10/26 02:01:37;;;;;;;0.40;0.20;;;;;;;;;;4988670;28;20037;-82
2023/10/26 02:04:03;;;;;;;0.38;0.30;;;;;;;;;;5011771;28;20038;-81
2023/10/26 02:06:29;;;;;;;0.20;0.10;;;;;;;;;;4999039;28;20096;-81
2023/10/26 02:08:55;;;;;;;0.20;0.10;;;;;;;;;;5006944;28;20144;-82
2023/10/26 02:11:21;;;;;;;0.35;0.35;;;;;;;;;;5002990;28;20117;-81
2023/10/26 02:13:48;;;;;;;0.40;0.40;;;;;;;;;;5012601;28;20427;-82
2023/10/26 02:16:14;;;;;;;0.63;0.28;;;;;;;;;;4997349;28;20503;-79
2023/10/26 02:18:42;;;;;;;0.22;0.13;;;;;;;;;;5004475;28;20065;-81
2023/10/26 02:21:08;;;;;;;0.38;0.38;;;;;;;;;;5007948;28;20094;-82
2023/10/26 02:23:34;;;;;;;0.52;0.35;;;;;;;;;;5004018;28;20517;-82
2023/10/26 02:26:02;;;;;;;0.40;0.30;;;;;;;;;;5005424;28;20116;-80
2023/10/26 02:28:28;;;;;;;0.20;0.10;;;;;;;;;;5006063;28;20533;-81
2023/10/26 02:30:54;;;;;;;0.52;0.30;;;;;;;;;;4994520;28;20047;-81
2023/10/26 02:33:20;;;;;;;0.20;0.10;;;;;;;;;;4985119;28;20049;-81
2023/10/26 02:35:46;;;;;;;0.22;0.13;;;;;;;;;;4996902;28;20465;-82
2023/10/26 02:38:12;;;;;;;0.20;0.10;;;;;;;;;;5002891;28;20038;-81
2023/10/26 02:40:39;;;;;;;0.75;0.70;;;;;;;;;;5007665;28;20049;-81
2023/10/26 02:43:05;;;;;;;0.20;0.10;;;;;;;;;;4985905;28;20437;-81
2023/10/26 02:45:31;;;;;;;0.20;0.10;;;;;;;;;;5003995;28;20046;-81
2023/10/26 02:48:02;;;;;;;0.40;0.38;;;;;;;;;;5006383;28;20060;-82
2023/10/26 02:50:28;;;;;;;0.35;0.25;;;;;;;;;;4991385;28;20533;-81
2023/10/26 02:52:54;;;;;;;0.80;0.40;;;;;;;;;;5008951;28;20382;-81
2023/10/26 02:55:20;;;;;;;0.20;0.10;;;;;;;;;;5002305;28;20044;-81
2023/10/26 02:57:48;;;;;;;0.20;0.15;;;;;;;;;;5006010;28;20042;-81
2023/10/26 03:00:16;;;;;;;0.20;0.10;;;;;;;;;;4988742;28;20067;-81
2023/10/26 03:02:42;;;;;;;0.20;0.17;;;;;;;;;;4988038;28;20068;-81
2023/10/26 03:05:08;;;;;;;0.20;0.10;;;;;;;;;;4995581;28;20057;-81
2023/10/26 03:07:35;;;;;;;0.32;0.32;;;;;;;;;;5012713;28;20113;-82
2023/10/26 03:10:01;;;;;;;0.20;0.10;;;;;;;;;;5002842;28;20041;-81
2023/10/26 03:12:27;;;;;;;0.20;0.10;;;;;;;;;;5005868;28;20265;-81
2023/10/26 03:14:53;;;;;;;0.20;0.20;;;;;;;;;;4995743;28;20045;-81
2023/10/26 03:17:19;;;;;;;0.20;0.10;;;;;;;;;;5008164;28;20041;-81
2023/10/26 03:19:45;;;;;;;0.20;0.10;;;;;;;;;;4987151;28;20037;-81
2023/10/26 03:22:11;;;;;;;0.32;0.30;;;;;;;;;;4996002;28;20032;-82
2023/10/26 03:24:38;;;;;;;0.20;0.10;;;;;;;;;;4997855;28;20046;-81
2023/10/26 03:27:04;;;;;;;0.20;0.10;;;;;;;;;;4992956;28;20037;-81
2023/10/26 03:29:30;;;;;;;0.20;0.10;;;;;;;;;;4998325;28;20045;-82
2023/10/26 03:31:57;;;;;;;0.35;0.35;;;;;;;;;;5001713;28;20037;-82
2023/10/26 03:34:23;;;;;;;0.20;0.10;;;;;;;;;;5006519;28;20493;-82
2023/10/26 03:36:49;;;;;;;0.20;0.20;;;;;;;;;;4991392;28;20042;-82
2023/10/26 03:39:15;;;;;;;0.20;0.00;;;;;;;;;;4999486;28;20100;-81
2023/10/26 03:41:42;;;;;;;0.32;0.32;;;;;;;;;;4993904;28;20077;-81
2023/10/26 03:44:08;;;;;;;0.90;0.20;;;;;;;;;;5003041;28;20037;-83
2023/10/26 03:46:34;;;;;;;0.35;0.32;;;;;;;;;;4992550;28;20077;-80
2023/10/26 03:49:00;;;;;;;0.20;0.20;;;;;;;;;;4995718;28;20037;-81
2023/10/26 03:51:26;;;;;;;0.68;0.45;;;;;;;;;;4999552;28;20038;-80
2023/10/26 03:53:52;;;;;;;0.93;0.57;;;;;;;;;;5002767;28;20042;-82
2023/10/26 03:56:18;;;;;;;0.20;0.13;;;;;;;;;;5008580;28;20052;-83
2023/10/26 03:58:44;;;;;;;0.20;0.10;;;;;;;;;;4994611;28;20045;-82
2023/10/26 04:01:10;;;;;;;0.38;0.30;;;;;;;;;;5010943;28;20033;-81
2023/10/26 04:03:36;;;;;;;0.20;0.10;;;;;;;;;;4995954;28;20459;-82
2023/10/26 04:06:03;;;;;;;0.20;0.20;;;;;;;;;;4992055;28;20136;-82
2023/10/26 04:08:29;;;;;;;0.20;0.13;;;;;;;;;;4990333;28;20125;-81
2023/10/26 04:10:55;;;;;;;0.20;0.00;;;;;;;;;;5009404;28;20052;-82
2023/10/26 04:13:21;;;;;;;2.05;0.90;;;;;;;;;;4994658;28;20041;-82
2023/10/26 04:15:48;;;;;;;0.20;0.10;;;;;;;;;;5002359;28;20402;-82
2023/10/26 04:18:14;;;;;;;2.30;0.28;;;;;;;;;;4987354;28;20071;-81
2023/10/26 04:20:40;;;;;;;0.20;0.10;;;;;;;;;;4992168;28;20041;-82
2023/10/26 04:23:06;;;;;;;0.20;0.08;;;;;;;;;;5012686;28;20094;-82
2023/10/26 04:25:32;;;;;;;0.30;0.30;;;;;;;;;;4999790;28;20049;-82
2023/10/26 04:27:58;;;;;;;0.20;0.10;;;;;;;;;;5016568;28;20101;-82
2023/10/26 04:30:25;;;;;;;0.65;0.65;;;;;;;;;;5003372;28;20472;-82
2023/10/26 04:32:52;;;;;;;0.30;0.20;;;;;;;;;;5016529;28;20041;-83
2023/10/26 04:35:19;;;;;;;0.45;0.22;;;;;;;;;;5002283;28;20057;-81
2023/10/26 04:37:45;;;;;;;0.25;0.15;;;;;;;;;;4987910;28;20045;-82
2023/10/26 04:40:11;;;;;;;0.22;0.13;;;;;;;;;;4996345;28;20045;-82
2023/10/26 04:42:37;;;;;;;0.20;0.10;;;;;;;;;;5009476;28;20061;-82
2023/10/26 04:45:03;;;;;;;0.65;0.50;;;;;;;;;;5004268;28;20044;-82
2023/10/26 04:47:29;;;;;;;0.28;0.20;;;;;;;;;;5009598;28;20053;-81
2023/10/26 04:49:55;;;;;;;0.40;0.30;;;;;;;;;;5000675;28;20037;-81
2023/10/26 04:52:21;;;;;;;0.20;0.10;;;;;;;;;;5012932;28;20053;-81
2023/10/26 04:54:47;;;;;;;0.25;0.13;;;;;;;;;;5013816;28;20045;-81
2023/10/26 04:57:13;;;;;;;1.48;0.28;;;;;;;;;;5011310;28;20131;-81
2023/10/26 04:59:39;;;;;;;0.20;0.00;;;;;;;;;;5010412;28;20504;-81
2023/10/26 05:02:05;;;;;;;0.55;0.20;;;;;;;;;;5017589;28;20034;-82
2023/10/26 05:04:31;;;;;;;1.55;0.35;;;;;;;;;;5019920;28;20037;-81
2023/10/26 05:06:57;;;;;;;0.20;0.08;;;;;;;;;;4999840;28;20422;-81
2023/10/26 05:09:23;;;;;;;0.20;0.00;;;;;;;;;;5017242;28;20362;-82
2023/10/26 05:11:49;;;;;;;0.20;0.17;;;;;;;;;;5015812;28;20041;-81
2023/10/26 05:14:15;;;;;;;0.20;0.15;;;;;;;;;;5024284;28;20456;-81
2023/10/26 05:16:41;;;;;;;0.20;0.20;;;;;;;;;;5013610;28;20037;-81
2023/10/26 05:19:07;;;;;;;0.20;0.13;;;;;;;;;;5019174;28;21071;-81
2023/10/26 05:21:34;;;;;;;0.40;0.20;;;;;;;;;;5000780;28;20067;-81
2023/10/26 05:24:00;;;;;;;0.40;0.10;;;;;;;;;;5010996;28;20039;-81
2023/10/26 05:26:26;;;;;;;0.20;0.20;;;;;;;;;;5011492;28;20041;-82
2023/10/26 05:28:51;;;;;;;0.20;0.00;;;;;;;;;;5002288;28;20045;-82
2023/10/26 05:31:18;;;;;;;0.20;0.10;;;;;;;;;;5003924;28;20045;-81
2023/10/26 05:33:44;;;;;;;0.80;0.47;;;;;;;;;;4996586;28;20099;-81
2023/10/26 05:36:09;;;;;;;0.20;0.20;;;;;;;;;;5003516;28;20041;-81
2023/10/26 05:38:35;;;;;;;0.73;0.35;;;;;;;;;;5012376;28;20130;-82
2023/10/26 05:41:02;;;;;;;0.20;0.00;;;;;;;;;;5000594;28;20506;-81
2023/10/26 05:43:28;;;;;;;0.35;0.35;;;;;;;;;;5001868;28;20506;-81
2023/10/26 05:46:01;;;;;;;0.20;0.10;;;;;;;;;;5013124;28;20036;-81
2023/10/26 05:48:29;;;;;;;1.17;0.90;;;;;;;;;;5003546;28;20095;-81
2023/10/26 05:50:55;;;;;;;1.08;1.00;;;;;;;;;;4999979;28;20102;-81
2023/10/26 05:53:21;;;;;;;0.20;0.10;;;;;;;;;;5012421;28;20417;-82
2023/10/26 05:56:00;;;;;;;1.10;0.57;;;;;;;;;;5000246;28;20040;-82
2023/10/26 05:58:26;;;;;;;0.20;0.20;;;;;;;;;;5013748;28;20045;-80
2023/10/26 06:00:53;;;;;;;0.20;0.10;;;;;;;;;;5014816;28;20132;-81
2023/10/26 06:03:19;;;;;;;0.30;0.30;;;;;;;;;;5011649;28;20530;-82
2023/10/26 06:05:45;;;;;;;0.20;0.10;;;;;;;;;;5023158;28;20065;-81
2023/10/26 06:08:11;;;;;;;0.40;0.30;;;;;;;;;;5011321;28;20084;-79
2023/10/26 06:10:38;;;;;;;0.20;0.10;;;;;;;;;;5011687;28;20151;-82
2023/10/26 06:13:07;;;;;;;0.20;0.10;;;;;;;;;;5004354;28;20528;-80
2023/10/26 06:15:33;;;;;;;0.20;0.00;;;;;;;;;;4993909;28;20056;-82
2023/10/26 06:17:59;;;;;;;0.30;0.30;;;;;;;;;;5018880;28;20107;-81
2023/10/26 06:20:27;;;;;;;0.85;0.50;;;;;;;;;;5016890;28;20033;-82
2023/10/26 06:22:54;;;;;;;0.20;0.10;;;;;;;;;;5017221;28;20507;-81
2023/10/26 06:25:20;;;;;;;0.20;0.10;;;;;;;;;;5014351;28;20060;-82
2023/10/26 06:27:49;;;;;;;0.20;0.17;;;;;;;;;;5018533;28;20125;-83
2023/10/26 06:30:16;;;;;;;0.30;0.30;;;;;;;;;;5014867;28;20041;-83
2023/10/26 06:32:43;;;;;;;0.85;0.57;;;;;;;;;;5004128;28;20043;-82
2023/10/26 06:35:10;;;;;;;1.88;0.93;;;;;;;;;;5014222;28;20053;-82
2023/10/26 06:37:37;;;;;;;0.20;0.13;;;;;;;;;;5001953;28;20296;-82
2023/10/26 06:40:04;;;;;;;0.20;0.10;;;;;;;;;;5023456;28;20041;-82
2023/10/26 06:42:30;;;;;;;0.20;0.20;;;;;;;;;;4992585;28;20054;-82
2023/10/26 06:44:56;;;;;;;0.20;0.00;;;;;;;;;;5018774;28;20048;-82
2023/10/26 06:47:22;;;;;;;0.30;0.20;;;;;;;;;;5014668;28;20034;-81
2023/10/26 06:49:48;;;;;;;0.57;0.57;;;;;;;;;;5005145;28;20130;-83
2023/10/26 06:52:14;;;;;;;1.05;0.50;;;;;;;;;;4999727;28;20540;-82
2023/10/26 06:54:40;;;;;;;0.20;0.00;;;;;;;;;;5003171;28;20045;-82
2023/10/26 06:57:06;;;;;;;0.35;0.35;;;;;;;;;;5003885;28;20042;-82
2023/10/26 06:59:32;;;;;;;0.20;0.10;;;;;;;;;;5030192;28;20515;-83
2023/10/26 07:01:58;;;;;;;0.20;0.20;;;;;;;;;;5010103;28;20042;-81
2023/10/26 07:04:24;;;;;;;0.20;0.00;;;;;;;;;;5026193;28;20043;-82
2023/10/26 07:06:50;;;;;;;0.20;0.10;;;;;;;;;;4998912;28;20034;-82
2023/10/26 07:09:16;;;;;;;0.30;0.22;;;;;;;;;;4991804;28;20379;-82
2023/10/26 07:11:42;;;;;;;0.40;0.30;;;;;;;;;;5011810;28;20041;-83
2023/10/26 07:14:08;;;;;;;0.50;0.30;;;;;;;;;;5002105;28;20037;-81
2023/10/26 07:16:35;;;;;;;0.20;0.08;;;;;;;;;;5005791;28;20041;-82
2023/10/26 07:19:00;;;;;;;0.30;0.10;;;;;;;;;;4996544;28;20037;-82
2023/10/26 07:21:27;;;;;;;1.38;0.55;;;;;;;;;;5010454;28;20521;-83
2023/10/26 07:23:53;;;;;;;0.20;0.20;;;;;;;;;;5013533;28;20033;-83
2023/10/26 07:26:19;;;;;;;0.20;0.10;;;;;;;;;;5017988;28;20037;-84
2023/10/26 07:28:45;;;;;;;0.50;0.47;;;;;;;;;;5005369;28;20544;-82
2023/10/26 07:31:20;;;;;;;0.22;0.13;;;;;;;;;;5009075;28;20457;-84
2023/10/26 07:33:46;;;;;;;0.32;0.25;;;;;;;;;;4996133;28;20033;-82
2023/10/26 07:36:12;;;;;;;0.20;0.10;;;;;;;;;;4992758;28;20445;-84
2023/10/26 07:38:38;;;;;;;0.20;0.10;;;;;;;;;;5006687;28;20109;-83
2023/10/26 07:41:05;;;;;;;0.20;0.20;;;;;;;;;;5008071;28;20615;-84
2023/10/26 07:43:31;;;;;;;0.20;0.10;;;;;;;;;;4992887;28;20572;-83
2023/10/26 07:45:57;;;;;;;0.20;0.10;;;;;;;;;;4990037;28;20425;-83
2023/10/26 07:48:24;;;;;;;0.20;0.00;;;;;;;;;;5001969;28;20045;-83
2023/10/26 07:50:51;;;;;;;0.20;0.10;;;;;;;;;;5007086;28;20510;-82
2023/10/26 07:53:17;;;;;;;0.30;0.10;;;;;;;;;;5006328;28;20113;-85
2023/10/26 07:55:44;;;;;;;0.45;0.45;;;;;;;;;;5009458;28;20540;-83
2023/10/26 07:58:10;;;;;;;0.20;0.10;;;;;;;;;;4994881;28;20033;-83
2023/10/26 08:00:39;;;;;;;0.20;0.00;;;;;;;;;;4997622;28;20101;-82
2023/10/26 08:03:05;;;;;;;0.20;0.20;;;;;;;;;;4991270;28;20054;-85
2023/10/26 08:05:31;;;;;;;0.20;0.10;;;;;;;;;;5003706;28;20037;-84
2023/10/26 08:07:57;;;;;;;1.00;0.50;;;;;;;;;;5008955;28;20560;-85
2023/10/26 08:10:26;;;;;;;0.20;0.00;;;;;;;;;;5010058;28;20045;-84
2023/10/26 08:12:52;;;;;;;0.20;0.00;;;;;;;;;;4991748;28;20049;-84
2023/10/26 08:15:19;;;;;;;0.20;0.10;;;;;;;;;;4989367;28;20095;-85
2023/10/26 08:17:45;;;;;;;0.20;0.10;;;;;;;;;;4990883;28;20037;-84
2023/10/26 08:20:12;;;;;;;0.20;0.10;;;;;;;;;;4986093;28;20485;-85
2023/10/26 08:22:38;;;;;;;0.43;0.30;;;;;;;;;;4994039;28;20045;-86
2023/10/26 08:25:04;;;;;;;0.20;0.00;;;;;;;;;;5001471;28;20037;-85
2023/10/26 08:27:35;;;;;;;0.20;0.10;;;;;;;;;;5002444;28;20034;-87
2023/10/26 08:30:02;;;;;;;0.20;0.08;;;;;;;;;;4998467;28;20160;-84
2023/10/26 08:32:28;;;;;;;0.20;0.17;;;;;;;;;;4983078;28;20037;-85
2023/10/26 08:34:54;;;;;;;0.50;0.38;;;;;;;;;;4994446;28;20060;-85
2023/10/26 08:37:21;;;;;;;0.20;0.10;;;;;;;;;;5008400;28;20037;-84
2023/10/26 08:39:47;;;;;;;0.20;0.10;;;;;;;;;;5006068;28;20049;-85
2023/10/26 08:42:17;;;;;;;0.50;0.45;;;;;;;;;;4997904;28;20060;-84
2023/10/26 08:44:43;;;;;;;0.35;0.30;;;;;;;;;;4984946;28;20064;-83
2023/10/26 08:47:11;;;;;;;0.20;0.10;;;;;;;;;;5011437;28;20045;-85
2023/10/26 08:49:37;;;;;;;0.20;0.20;;;;;;;;;;4987108;28;20087;-85
2023/10/26 08:52:04;;;;;;;0.50;0.50;;;;;;;;;;5000289;28;20120;-85
2023/10/26 08:54:32;;;;;;;0.20;0.00;;;;;;;;;;4987501;28;20446;-85
2023/10/26 08:57:05;;;;;;;0.20;0.00;;;;;;;;;;5000194;28;20675;-87
2023/10/26 08:59:31;;;;;;;0.20;0.10;;;;;;;;;;4989644;28;20045;-84
2023/10/26 09:01:57;;;;;;;0.20;0.10;;;;;;;;;;4996668;28;20044;-84
2023/10/26 09:04:23;;;;;;;0.35;0.30;;;;;;;;;;4995353;28;20042;-84
2023/10/26 09:06:51;;;;;;;0.20;0.03;;;;;;;;;;5005354;28;20387;-85
2023/10/26 09:09:17;;;;;;;0.20;0.10;;;;;;;;;;4990608;28;20053;-84
2023/10/26 09:11:46;;;;;;;0.30;0.30;;;;;;;;;;5007368;28;20049;-85
2023/10/26 09:14:16;;;;;;;0.30;0.30;;;;;;;;;;4987686;28;20081;-84
2023/10/26 09:16:44;;;;;;;0.20;0.10;;;;;;;;;;4993837;28;20040;-86
2023/10/26 09:19:14;;;;;;;0.20;0.10;;;;;;;;;;4998841;28;20084;-86
2023/10/26 09:22:07;;;;;;;0.20;0.00;;;;;;;;;;4990257;28;20034;-85
2023/10/26 09:24:42;;;;;;;0.20;0.00;;;;;;;;;;4994671;28;20124;-87
2023/10/26 09:27:18;;;;;;;0.20;0.10;;;;;;;;;;4995651;28;20140;-85
2023/10/26 09:29:45;;;;;;;0.20;0.10;;;;;;;;;;4989040;28;20069;-86
2023/10/26 09:32:11;;;;;;;0.55;0.55;;;;;;;;;;4994309;28;20033;-84
2023/10/26 09:34:41;;;;;;;0.20;0.00;;;;;;;;;;4994240;28;20033;-84
2023/10/26 09:37:07;;;;;;;0.20;0.10;;;;;;;;;;4994493;28;20049;-85
2023/10/26 09:39:34;;;;;;;0.20;0.13;;;;;;;;;;5007367;28;20093;-85
2023/10/26 09:42:01;;;;;;;0.38;0.25;;;;;;;;;;5007747;28;20068;-84
2023/10/26 09:44:30;;;;;;;0.47;0.13;;;;;;;;;;4986614;28;20486;-84
2023/10/26 09:46:57;;;;;;;0.52;0.35;;;;;;;;;;5011309;28;20045;-84
2023/10/26 09:49:24;;;;;;;0.20;0.10;;;;;;;;;;5002518;28;20052;-83
2023/10/26 09:51:51;;;;;;;0.22;0.20;;;;;;;;;;5009282;28;20095;-84
2023/10/26 09:54:21;;;;;;;0.28;0.08;;;;;;;;;;4994025;28;20037;-85
2023/10/26 09:56:50;;;;;;;0.20;0.00;;;;;;;;;;5008029;28;20041;-85
2023/10/26 09:59:16;;;;;;;0.60;0.28;;;;;;;;;;4990527;28;20072;-83
2023/10/26 10:01:43;;;;;;;0.20;0.10;;;;;;;;;;4994675;28;20041;-86
2023/10/26 10:04:10;;;;;;;0.20;0.00;;;;;;;;;;4993238;28;20068;-84
2023/10/26 10:06:58;;;;;;;0.20;0.10;;;;;;;;;;5007971;28;20033;-84
2023/10/26 10:09:24;;;;;;;0.20;0.10;;;;;;;;;;5005103;28;20049;-85
2023/10/26 10:12:11;;;;;;;0.20;0.10;;;;;;;;;;5002627;28;20081;-85
2023/10/26 10:14:54;;;;;;;0.98;0.77;;;;;;;;;;4995704;28;20053;-85
2023/10/26 10:17:21;;;;;;;0.20;0.00;;;;;;;;;;4986048;28;20041;-85
2023/10/26 10:19:48;;;;;;;0.20;0.08;;;;;;;;;;5006467;28;20549;-85
2023/10/26 10:22:33;;;;;;;0.20;0.00;;;;;;;;;;4988698;28;20075;-85
2023/10/26 10:24:59;;;;;;;0.52;0.52;;;;;;;;;;5007232;28;20041;-85
2023/10/26 10:27:25;;;;;;;0.30;0.30;;;;;;;;;;5007625;28;20041;-84
2023/10/26 10:29:51;;;;;;;0.20;0.10;;;;;;;;;;5002627;28;20037;-84
2023/10/26 10:32:36;;;;;;;6.03;0.70;;;;;;;;;;5006413;28;20402;-84
2023/10/26 10:35:06;;;;;;;0.20;0.15;;;;;;;;;;5005398;28;20034;-85
2023/10/26 10:37:32;;;;;;;0.20;0.05;;;;;;;;;;4992443;28;20036;-84
2023/10/26 10:40:17;;;;;;;0.20;0.10;;;;;;;;;;4990462;28;20378;-83
2023/10/26 10:42:47;;;;;;;0.20;0.20;;;;;;;;;;4993471;28;20045;-84
2023/10/26 10:45:14;;;;;;;0.70;0.63;;;;;;;;;;5003070;28;20146;-84
2023/10/26 10:47:44;;;;;;;0.20;0.10;;;;;;;;;;4993937;28;20119;-85
2023/10/26 10:50:13;;;;;;;0.20;0.10;;;;;;;;;;4997531;28;20041;-84
2023/10/26 10:52:41;;;;;;;0.25;0.25;;;;;;;;;;5006350;28;20742;-84
2023/10/26 10:55:07;;;;;;;0.20;0.00;;;;;;;;;;4989821;28;20472;-84
2023/10/26 10:57:33;;;;;;;0.20;0.00;;;;;;;;;;4991992;28;20041;-83
2023/10/26 10:59:59;;;;;;;0.50;0.47;;;;;;;;;;4990983;28;20144;-85
2023/10/26 11:02:25;;;;;;;0.25;0.13;;;;;;;;;;5003213;28;20065;-86
2023/10/26 11:04:57;;;;;;;0.20;0.10;;;;;;;;;;4996713;28;20030;-85
2023/10/26 11:07:23;;;;;;;;;;;;;;;;;;5007463;28;20489;-85
2023/10/26 11:09:50;;;;;;;0.20;0.10;;;;;;;;;;5020515;28;19917;-85
2023/10/26 11:12:16;;;;;;;0.20;0.10;;;;;;;;;;5024947;28;20132;-86
2023/10/26 11:14:52;;;;;;;1.55;0.40;;;;;;;;;;4992047;28;20293;-83
2023/10/26 11:17:22;;;;;;;0.50;0.25;;;;;;;;;;4998019;28;20428;-84
2023/10/26 11:19:49;;;;;;;0.68;0.55;;;;;;;;;;5000405;28;20050;-85
2023/10/26 11:22:16;;;;;;;0.77;0.57;;;;;;;;;;4994643;28;20037;-84
2023/10/26 11:24:45;;;;;;;0.20;0.13;;;;;;;;;;5010752;28;20129;-84
2023/10/26 11:27:12;;;;;;;0.25;0.10;;;;;;;;;;4990571;28;20053;-85
2023/10/26 11:29:41;;;;;;;0.20;0.00;;;;;;;;;;4994338;28;20045;-84
2023/10/26 11:32:24;;;;;;;0.20;0.00;;;;;;;;;;4996241;28;20045;-84
2023/10/26 11:35:06;;;;;;;0.20;0.00;;;;;;;;;;4991129;28;20037;-85
2023/10/26 11:37:34;;;;;;;0.85;0.50;;;;;;;;;;5007422;28;20045;-83
2023/10/26 11:40:00;;;;;;;0.20;0.10;;;;;;;;;;4995404;28;20069;-85
2023/10/26 11:42:45;;;;;;;0.20;0.00;;;;;;;;;;5007678;28;20045;-85
2023/10/26 11:45:13;;;;;;;0.90;0.90;;;;;;;;;;5000947;28;20048;-88
2023/10/26 11:47:50;;;;;;;0.20;0.00;;;;;;;;;;5007113;28;20135;-86
2023/10/26 11:50:19;;;;;;;0.20;0.10;;;;;;;;;;4993857;28;20135;-85
2023/10/26 11:52:46;;;;;;;0.40;0.35;;;;;;;;;;4996702;28;20064;-85
2023/10/26 11:55:14;;;;;;;0.25;0.10;;;;;;;;;;5005611;28;20137;-84
2023/10/26 11:57:44;;;;;;;0.20;0.10;;;;;;;;;;5007168;28;20048;-86
2023/10/26 12:00:14;;;;;;;0.20;0.10;;;;;;;;;;4991505;28;20111;-86
2023/10/26 12:02:40;;;;;;;0.20;0.10;;;;;;;;;;4995843;28;20116;-84
2023/10/26 12:05:07;;;;;;;0.32;0.30;;;;;;;;;;5001530;28;20030;-84
2023/10/26 12:07:33;;;;;;;0.22;0.20;;;;;;;;;;5005719;28;20073;-83
2023/10/26 12:09:59;;;;;;;0.20;0.10;;;;;;;;;;4990622;28;20292;-84
2023/10/26 12:12:25;;;;;;;0.20;0.10;;;;;;;;;;5004504;28;20122;-85
2023/10/26 12:14:51;;;;;;;0.28;0.28;;;;;;;;;;4985814;28;20716;-86
2023/10/26 12:17:17;;;;;;;0.20;0.10;;;;;;;;;;5001429;28;20037;-84
2023/10/26 12:19:43;;;;;;;0.20;0.10;;;;;;;;;;5009232;28;20560;-85
2023/10/26 12:22:09;;;;;;;0.20;0.00;;;;;;;;;;4997546;28;20071;-84
2023/10/26 12:24:36;;;;;;;0.20;0.15;;;;;;;;;;5006604;28;20076;-84
2023/10/26 12:27:02;;;;;;;0.20;0.10;;;;;;;;;;4995498;28;20139;-85
2023/10/26 12:29:29;;;;;;;0.20;0.10;;;;;;;;;;5003716;28;20085;-85
2023/10/26 12:31:55;;;;;;;0.40;0.32;;;;;;;;;;4993046;28;20366;-84
2023/10/26 12:34:21;;;;;;;0.40;0.28;;;;;;;;;;4993057;28;20055;-86
2023/10/26 12:36:47;;;;;;;0.40;0.38;;;;;;;;;;5008280;28;20034;-85
2023/10/26 12:39:13;;;;;;;0.28;0.22;;;;;;;;;;4994280;28;20080;-84
2023/10/26 12:41:39;;;;;;;0.20;0.10;;;;;;;;;;4989634;28;20037;-83
2023/10/26 12:44:06;;;;;;;0.35;0.35;;;;;;;;;;4989791;28;20029;-87
2023/10/26 12:46:31;;;;;;;0.73;0.28;;;;;;;;;;5008513;28;20045;-83
2023/10/26 12:48:57;;;;;;;0.30;0.20;;;;;;;;;;5005481;28;20503;-82
2023/10/26 12:51:23;;;;;;;0.20;0.20;;;;;;;;;;4993567;28;20090;-83
2023/10/26 12:53:49;;;;;;;0.20;0.20;;;;;;;;;;5004963;28;20049;-84
2023/10/26 12:56:16;;;;;;;0.20;0.10;;;;;;;;;;5014464;28;20117;-84
2023/10/26 12:58:42;;;;;;;0.52;0.20;;;;;;;;;;5015175;28;20069;-85
2023/10/26 13:01:08;;;;;;;0.20;0.10;;;;;;;;;;5010422;28;20037;-83
2023/10/26 13:03:34;;;;;;;0.20;0.20;;;;;;;;;;4991524;28;20051;-84
2023/10/26 13:06:00;;;;;;;0.20;0.20;;;;;;;;;;5011369;28;20050;-84
2023/10/26 13:08:26;;;;;;;0.20;0.00;;;;;;;;;;4993668;28;20044;-84
2023/10/26 13:10:52;;;;;;;0.20;0.10;;;;;;;;;;4989498;28;20111;-83
2023/10/26 13:13:18;;;;;;;0.43;0.28;;;;;;;;;;5007571;28;20092;-85
2023/10/26 13:15:44;;;;;;;0.20;0.10;;;;;;;;;;5007118;28;20045;-82
2023/10/26 13:18:10;;;;;;;0.20;0.10;;;;;;;;;;4992729;28;20045;-84
2023/10/26 13:20:36;;;;;;;0.20;0.05;;;;;;;;;;5002043;28;20033;-85
2023/10/26 13:23:03;;;;;;;0.20;0.20;;;;;;;;;;4993101;28;20049;-83
2023/10/26 13:25:30;;;;;;;0.20;0.10;;;;;;;;;;5011016;28;20037;-84
2023/10/26 13:27:59;;;;;;;0.20;0.13;;;;;;;;;;5006062;28;20063;-83
2023/10/26 13:30:25;;;;;;;0.20;0.10;;;;;;;;;;5011599;28;20045;-83
2023/10/26 13:32:52;;;;;;;0.20;0.00;;;;;;;;;;5001563;28;20045;-83
2023/10/26 13:35:18;;;;;;;0.20;0.20;;;;;;;;;;4996083;28;20047;-86
2023/10/26 13:37:44;;;;;;;0.20;0.17;;;;;;;;;;4998198;28;20426;-84
2023/10/26 13:40:10;;;;;;;0.20;0.10;;;;;;;;;;4998713;28;20037;-83
2023/10/26 13:42:36;;;;;;;0.20;0.00;;;;;;;;;;4995444;28;20120;-82
2023/10/26 13:45:02;;;;;;;0.57;0.43;;;;;;;;;;5010341;28;20132;-86
2023/10/26 13:47:28;;;;;;;0.30;0.20;;;;;;;;;;4995440;28;20149;-85
2023/10/26 13:49:54;;;;;;;0.20;0.20;;;;;;;;;;4996673;28;20097;-84
2023/10/26 13:52:21;;;;;;;0.20;0.03;;;;;;;;;;4989979;28;20038;-85
2023/10/26 13:54:47;;;;;;;0.63;0.40;;;;;;;;;;5010809;28;20107;-84
2023/10/26 13:57:13;;;;;;;0.20;0.00;;;;;;;;;;5011348;28;20353;-84
2023/10/26 13:59:39;;;;;;;0.30;0.13;;;;;;;;;;4987988;28;20053;-85
2023/10/26 14:02:05;;;;;;;0.20;0.00;;;;;;;;;;4998439;28;20037;-84
2023/10/26 14:04:34;;;;;;;0.20;0.10;;;;;;;;;;5001946;28;20049;-84
2023/10/26 14:07:00;;;;;;;0.22;0.13;;;;;;;;;;4990618;28;20042;-85
2023/10/26 14:09:30;;;;;;;0.60;0.25;;;;;;;;;;4997071;28;20061;-85
2023/10/26 14:12:01;;;;;;;0.20;0.03;;;;;;;;;;4994424;28;20045;-84
2023/10/26 14:14:27;;;;;;;0.73;0.25;;;;;;;;;;5015884;28;20037;-84
2023/10/26 14:16:53;;;;;;;0.20;0.10;;;;;;;;;;4998734;28;20049;-84
2023/10/26 14:19:19;;;;;;;0.20;0.20;;;;;;;;;;4996408;28;20037;-83
2023/10/26 14:21:45;;;;;;;0.30;0.20;;;;;;;;;;4994997;28;20038;-83
2023/10/26 14:24:11;;;;;;;0.20;0.00;;;;;;;;;;5002740;28;20030;-83
2023/10/26 14:26:37;;;;;;;0.20;0.10;;;;;;;;;;4991795;28;20037;-82
2023/10/26 14:29:03;;;;;;;0.20;0.00;;;;;;;;;;5000877;28;20046;-84
2023/10/26 14:31:29;;;;;;;0.20;0.10;;;;;;;;;;4984545;28;20041;-84
2023/10/26 14:33:55;;;;;;;0.20;0.10;;;;;;;;;;4991192;28;20041;-84
2023/10/26 14:36:21;;;;;;;0.20;0.10;;;;;;;;;;5002577;28;20045;-84
2023/10/26 14:38:50;;;;;;;0.43;0.43;;;;;;;;;;4992998;28;20050;-85
2023/10/26 14:41:16;;;;;;;0.20;0.10;;;;;;;;;;5006269;28;20398;-83
2023/10/26 14:43:42;;;;;;;0.47;0.38;;;;;;;;;;5002991;28;20049;-85